Time;durP1;ratioP1;P1;durP2;ratioP2;P2;SDS_P1;SDS_P2;PMS_P1;PMS_P2;Temp;Humidity;BMP_temperature;BMP_pressure;BME280_temperature;BME280_humidity;BME280_pressure;Samples;Min_cycle;Max_cycle;Signal;HPM_P1;HPM_P2
2022/12/15 05:32:11;;;;;;;18.23;14.77;;;24.30;40.30;;;-142.21;32.78;112049.66;5013816;28;20284;-81
2022/12/15 05:34:39;;;;;;;18.27;14.37;;;24.40;40.40;;;-142.21;33.01;112049.66;5010830;28;20203;-80
2022/12/15 05:37:07;;;;;;;17.30;14.70;;;24.30;40.30;;;-142.21;32.98;112049.66;4994562;28;20661;-83
2022/12/15 05:39:35;;;;;;;16.50;14.53;;;24.30;40.30;;;-142.21;33.03;112049.66;5003778;28;20258;-80
2022/12/15 05:42:03;;;;;;;18.63;15.23;;;24.30;40.30;;;-142.21;32.76;112049.66;5014324;28;20227;-81
2022/12/15 05:44:31;;;;;;;15.87;13.63;;;24.40;40.40;;;-142.21;32.79;112049.66;5010653;28;20294;-81
2022/12/15 05:46:58;;;;;;;17.77;14.87;;;24.30;40.30;;;-142.21;32.91;112049.66;4993375;28;20254;-80
2022/12/15 05:49:25;;;;;;;17.60;15.00;;;24.30;40.20;;;-142.21;32.89;112049.66;5000489;28;20725;-80
2022/12/15 05:51:53;;;;;;;16.60;13.80;;;24.40;40.30;;;-142.21;32.97;112049.66;5013359;28;20253;-81
2022/12/15 05:54:21;;;;;;;17.47;14.27;;;24.30;40.20;;;-142.21;33.05;112049.66;5007609;28;20226;-82
2022/12/15 05:56:49;;;;;;;17.97;14.27;;;24.40;40.30;;;-142.21;33.06;112049.66;4995989;28;20242;-80
2022/12/15 05:59:17;;;;;;;17.30;14.23;;;24.30;40.20;;;-142.21;33.02;112049.66;4993654;28;20307;-79
2022/12/15 06:01:45;;;;;;;17.37;14.37;;;24.40;40.30;;;-142.21;32.99;112049.66;4993383;28;20207;-81
2022/12/15 06:04:13;;;;;;;17.27;13.60;;;24.30;40.20;;;-142.21;32.83;112049.66;4993376;28;20258;-81
2022/12/15 06:06:41;;;;;;;15.83;12.97;;;24.40;40.30;;;-142.21;33.06;112049.66;4993807;28;20218;-80
2022/12/15 06:09:09;;;;;;;16.43;13.03;;;24.30;40.30;;;-142.21;32.94;112049.66;4993926;28;20635;-80
2022/12/15 06:11:37;;;;;;;18.53;13.90;;;24.40;40.30;;;-142.21;33.08;112049.66;4994121;28;20283;-80
2022/12/15 06:14:05;;;;;;;14.77;12.77;;;24.40;40.30;;;-142.21;32.85;112049.66;4993499;28;20204;-78
2022/12/15 06:16:33;;;;;;;17.60;13.00;;;24.30;40.10;;;-142.21;32.40;112049.66;4966729;28;20290;-80
2022/12/15 06:19:04;;;;;;;15.33;12.97;;;24.40;39.50;;;-142.21;32.40;112049.66;4992927;28;20258;-80
2022/12/15 06:21:34;;;;;;;19.87;13.50;;;24.30;39.10;;;-142.21;31.83;112049.66;4985176;28;20242;-79
2022/12/15 06:24:04;;;;;;;14.63;12.33;;;24.30;39.60;;;-142.21;31.71;112049.66;5011563;28;20195;-79
2022/12/15 06:26:34;;;;;;;14.17;11.97;;;24.30;38.80;;;-142.21;31.52;112049.66;4988896;28;20683;-79
2022/12/15 06:29:03;;;;;;;14.87;12.77;;;24.20;38.50;;;-142.21;31.67;112049.66;4977474;28;20255;-79
2022/12/15 06:31:32;;;;;;;15.37;12.90;;;24.20;38.60;;;-142.21;31.50;112049.66;4979238;28;20239;-79
2022/12/15 06:34:03;;;;;;;14.10;11.70;;;24.20;38.50;;;-142.21;31.64;112049.66;4992013;28;20263;-80
2022/12/15 06:36:31;;;;;;;13.90;11.63;;;24.10;38.50;;;-142.21;31.89;112049.66;4992957;28;20258;-79
2022/12/15 06:38:59;;;;;;;14.07;11.57;;;24.10;38.50;;;-142.21;32.13;112049.66;4993023;28;20294;-80
2022/12/15 06:41:29;;;;;;;13.90;11.70;;;24.10;38.90;;;-142.21;32.87;112049.66;4993072;28;20306;-79
2022/12/15 06:43:57;;;;;;;20.03;13.97;;;24.10;39.80;;;-142.21;32.20;112049.66;4991167;28;20296;-80
2022/12/15 06:46:27;;;;;;;18.53;13.07;;;24.10;39.00;;;-142.21;33.05;112049.66;4993060;28;20232;-79
2022/12/15 06:48:56;;;;;;;18.07;12.73;;;24.10;39.70;;;-142.21;32.82;112049.66;4992420;28;20228;-80
2022/12/15 06:51:23;;;;;;;16.23;12.17;;;24.20;40.10;;;-142.21;33.39;112049.66;4993641;28;20729;-80
2022/12/15 06:53:52;;;;;;;13.40;12.00;;;24.20;40.90;;;-142.21;33.20;112049.66;4992892;28;20208;-80
2022/12/15 06:56:22;;;;;;;14.07;11.93;;;24.20;40.50;;;-142.21;33.45;112049.66;4994241;28;20215;-79
2022/12/15 06:58:51;;;;;;;14.60;10.73;;;24.20;40.60;;;-142.21;33.23;112049.66;4992182;28;20240;-80
2022/12/15 07:01:20;;;;;;;14.57;11.23;;;24.20;40.60;;;-142.21;33.51;112049.66;4993200;28;20299;-80
2022/12/15 07:03:48;;;;;;;13.43;11.20;;;24.30;40.70;;;-142.21;33.45;112049.66;4992231;28;20258;-80
2022/12/15 07:06:18;;;;;;;13.67;11.13;;;24.30;40.80;;;-142.21;33.30;112049.66;4993093;28;20203;-80
2022/12/15 07:08:51;;;;;;;12.87;11.13;;;24.20;40.70;;;-142.21;33.58;112049.66;4992173;28;20203;-80
2022/12/15 07:11:19;;;;;;;16.70;11.50;;;24.30;40.80;;;-142.21;33.08;112049.66;4991670;28;20286;-81
2022/12/15 07:13:49;;;;;;;14.90;11.50;;;24.30;40.80;;;-142.21;33.19;112049.66;4991644;28;20211;-81
2022/12/15 07:16:17;;;;;;;13.87;10.97;;;24.30;40.80;;;-142.21;33.46;112049.66;4992343;28;20238;-81
2022/12/15 07:18:44;;;;;;;13.63;11.33;;;24.30;40.70;;;-142.21;33.51;112049.66;4991597;28;20254;-80
2022/12/15 07:21:12;;;;;;;14.67;10.70;;;24.30;40.70;;;-142.21;33.56;112049.66;4992259;28;20315;-80
2022/12/15 07:23:40;;;;;;;12.97;10.60;;;24.30;40.70;;;-142.21;33.17;112049.66;4992609;28;20223;-81
2022/12/15 07:26:10;;;;;;;12.10;10.30;;;24.30;40.40;;;-142.21;33.15;112049.66;4992646;28;20295;-80
2022/12/15 07:28:38;;;;;;;14.47;10.70;;;24.30;40.60;;;-142.21;33.23;112049.66;4992510;28;20204;-79
2022/12/15 07:31:09;;;;;;;12.60;10.30;;;24.30;40.60;;;-142.21;33.00;112049.66;4992464;28;20239;-78
2022/12/15 07:33:38;;;;;;;12.23;9.93;;;24.30;40.70;;;-142.21;33.10;112049.66;5008665;28;20230;-78
2022/12/15 07:36:08;;;;;;;16.00;11.07;;;24.30;40.60;;;-142.21;33.22;112049.66;5011624;28;20214;-79
2022/12/15 07:38:36;;;;;;;11.37;9.73;;;24.20;40.50;;;-142.21;32.96;112049.66;5012242;28;20230;-79
2022/12/15 07:41:07;;;;;;;11.67;10.27;;;24.30;40.60;;;-142.21;33.18;112049.66;5011222;28;20318;-80
2022/12/15 07:43:34;;;;;;;11.53;10.10;;;24.30;40.60;;;-142.21;33.27;112049.66;5012036;28;20231;-79
2022/12/15 07:46:02;;;;;;;10.83;9.13;;;24.20;40.40;;;-142.21;33.08;112049.66;5011542;28;20238;-79
2022/12/15 07:48:30;;;;;;;11.10;9.33;;;24.20;41.10;;;-142.21;33.06;112049.66;5011714;28;20207;-80
2022/12/15 07:50:58;;;;;;;12.60;9.40;;;24.30;40.50;;;-142.21;32.89;112049.66;4999448;28;20227;-79
2022/12/15 07:53:27;;;;;;;12.87;9.60;;;24.30;40.50;;;-142.21;32.91;112049.66;4992589;28;20214;-79
2022/12/15 07:55:58;;;;;;;10.33;8.93;;;24.30;40.60;;;-142.21;32.88;112049.66;4991593;28;20261;-80
2022/12/15 07:58:28;;;;;;;10.20;9.10;;;24.20;40.50;;;-142.21;32.90;112049.66;4992286;28;20227;-80
2022/12/15 08:01:00;;;;;;;13.03;9.43;;;24.20;40.50;;;-142.21;32.88;112049.66;4991395;28;20281;-79
2022/12/15 08:03:28;;;;;;;10.53;9.43;;;24.20;40.50;;;-142.21;33.21;112049.66;4992367;28;20207;-79
2022/12/15 08:05:55;;;;;;;10.47;9.10;;;24.30;40.60;;;-142.21;33.03;112049.66;4991580;28;20244;-80
2022/12/15 08:08:24;;;;;;;12.17;9.40;;;24.30;40.50;;;-142.21;33.03;112049.66;4991929;28;20727;-78
2022/12/15 08:10:51;;;;;;;11.70;9.80;;;24.30;40.50;;;-142.21;33.06;112049.66;4991437;28;20286;-79
2022/12/15 08:13:18;;;;;;;12.53;9.47;;;24.30;40.50;;;-142.21;33.08;112049.66;4974733;28;20581;-79
2022/12/15 08:16:02;;;;;;;11.83;8.73;;;24.30;40.50;;;-142.21;33.09;112049.66;4991484;28;20266;-79
2022/12/15 08:18:29;;;;;;;11.27;8.87;;;24.30;40.50;;;-142.21;33.29;112049.66;4931633;29;20658;-79
2022/12/15 08:21:02;;;;;;;12.73;8.97;;;24.30;40.50;;;-142.21;33.11;112049.66;4931156;29;20209;-79
2022/12/15 08:23:30;;;;;;;10.07;8.43;;;24.30;40.50;;;-142.21;32.97;112049.66;4932410;29;20209;-79
2022/12/15 08:26:03;;;;;;;10.13;8.80;;;24.30;40.50;;;-142.21;33.06;112049.66;4933651;29;20244;-80
2022/12/15 08:28:31;;;;;;;10.43;8.70;;;24.30;40.50;;;-142.21;32.97;112049.66;4936114;29;20211;-79
2022/12/15 08:31:04;;;;;;;10.23;8.70;;;24.30;40.40;;;-142.21;32.83;112049.66;4935533;29;20325;-80
2022/12/15 08:33:32;;;;;;;10.90;8.83;;;24.30;40.40;;;-142.21;32.88;112049.66;4935599;29;20241;-80
2022/12/15 08:36:01;;;;;;;9.83;8.77;;;24.30;40.40;;;-142.21;33.00;112049.66;4934837;29;20322;-80
2022/12/15 08:38:29;;;;;;;11.40;9.13;;;24.30;40.30;;;-142.21;33.22;112049.66;4935342;29;20580;-80
2022/12/15 08:40:57;;;;;;;9.43;8.43;;;24.30;40.40;;;-142.21;33.21;112049.66;4935174;29;20241;-80
2022/12/15 08:43:24;;;;;;;9.70;7.87;;;24.30;40.40;;;-142.21;32.92;112049.66;4935256;29;20206;-80
2022/12/15 08:45:52;;;;;;;8.63;7.67;;;24.30;40.30;;;-142.21;32.79;112049.66;4935008;29;20226;-80
2022/12/15 08:48:21;;;;;;;9.63;7.63;;;24.30;40.40;;;-142.21;33.17;112049.66;4935285;29;20273;-79
2022/12/15 08:50:49;;;;;;;8.93;8.00;;;24.30;40.40;;;-142.21;33.10;112049.66;4935102;29;20225;-80
2022/12/15 08:53:16;;;;;;;8.50;7.60;;;24.30;40.40;;;-142.21;33.01;112049.66;4935544;29;20244;-79
2022/12/15 08:55:43;;;;;;;9.63;8.70;;;24.30;40.40;;;-142.21;32.83;112049.66;4968560;28;20628;-80
2022/12/15 08:58:10;;;;;;;8.87;7.60;;;24.30;40.40;;;-142.21;32.81;112049.66;5004595;28;20218;-80
2022/12/15 09:00:38;;;;;;;10.03;8.23;;;24.30;40.40;;;-142.21;33.01;112049.66;5020511;28;20275;-79
2022/12/15 09:03:05;;;;;;;8.97;7.60;;;24.30;40.40;;;-142.21;32.92;112049.66;5004367;28;20207;-80
2022/12/15 09:05:36;;;;;;;10.53;8.00;;;24.30;40.40;;;-142.21;32.89;112049.66;4995284;28;20231;-81
2022/12/15 09:08:05;;;;;;;8.57;7.70;;;24.30;40.40;;;-142.21;32.88;112049.66;4994134;28;20648;-79
2022/12/15 09:10:33;;;;;;;10.47;8.67;;;24.40;40.50;;;-142.21;32.80;112049.66;4995082;28;20210;-80
2022/12/15 09:13:00;;;;;;;9.23;7.60;;;24.30;40.30;;;-142.21;33.15;112049.66;4977566;28;20270;-81
2022/12/15 09:15:27;;;;;;;9.63;8.20;;;24.30;40.30;;;-142.21;33.15;112049.66;4995833;28;20222;-80
2022/12/15 09:17:54;;;;;;;8.23;7.20;;;24.40;40.40;;;-142.21;32.96;112049.66;4990260;28;20262;-83
2022/12/15 09:20:22;;;;;;;8.70;7.80;;;24.40;40.40;;;-142.21;32.83;112049.66;4994600;28;20231;-79
2022/12/15 09:22:51;;;;;;;8.73;7.83;;;24.40;40.40;;;-142.21;32.92;112049.66;4985896;28;20610;-81
2022/12/15 09:25:19;;;;;;;8.07;7.27;;;24.40;40.40;;;-142.21;32.79;112049.66;4975567;28;20560;-79
2022/12/15 09:27:46;;;;;;;8.93;7.80;;;24.40;40.30;;;-142.21;32.88;112049.66;4975725;28;20208;-80
2022/12/15 09:30:14;;;;;;;8.93;6.90;;;24.40;40.30;;;-142.21;32.76;112049.66;4987804;28;20281;-81
2022/12/15 09:32:41;;;;;;;8.90;7.57;;;24.40;40.40;;;-142.21;32.83;112049.66;5003012;28;20235;-81
2022/12/15 09:35:09;;;;;;;8.87;7.30;;;24.40;40.30;;;-142.21;32.75;112049.66;5014186;28;20219;-79
2022/12/15 09:37:37;;;;;;;10.70;7.80;;;24.40;40.30;;;-142.21;32.77;112049.66;5013454;28;20297;-80
2022/12/15 09:40:09;;;;;;;8.70;7.80;;;24.40;40.30;;;-142.21;32.63;112049.66;5013387;28;20285;-81
2022/12/15 09:42:37;;;;;;;8.87;7.37;;;24.40;40.40;;;-142.21;32.87;112049.66;5014840;28;20285;-79
2022/12/15 09:45:14;;;;;;;8.23;7.20;;;24.40;40.30;;;-142.21;33.24;112049.66;4998478;28;20299;-79
2022/12/15 09:47:52;;;;;;;8.80;7.63;;;24.40;40.40;;;-142.21;32.90;112049.66;4994702;28;20270;-80
2022/12/15 09:50:29;;;;;;;7.77;6.97;;;24.40;40.40;;;-142.21;32.91;112049.66;5001716;28;20191;-81
2022/12/15 09:52:58;;;;;;;8.10;6.93;;;24.40;40.30;;;-142.21;32.77;112049.66;5013806;28;20203;-79
2022/12/15 09:55:31;;;;;;;7.53;6.70;;;24.40;40.40;;;-142.21;32.90;112049.66;5014020;28;20211;-78
2022/12/15 09:58:04;;;;;;;8.43;7.30;;;24.40;40.30;;;-142.21;32.81;112049.66;5013535;28;20203;-78
2022/12/15 10:00:40;;;;;;;7.53;6.83;;;24.40;40.40;;;-142.21;32.94;112049.66;5013781;28;20279;-80
2022/12/15 10:03:40;;;;;;;7.80;6.67;;;24.50;40.40;;;-142.21;32.83;112049.66;5011927;28;20206;-80
2022/12/15 10:06:11;;;;;;;7.47;6.67;;;24.40;40.30;;;-142.21;33.15;112049.66;5013402;28;20219;-80
2022/12/15 10:08:43;;;;;;;7.90;6.73;;;24.40;40.40;;;-142.21;32.90;112049.66;5014021;28;20701;-81
2022/12/15 10:11:48;;;;;;;7.70;6.90;;;24.50;40.40;;;-142.21;33.06;112049.66;5012927;28;20191;-80
2022/12/15 10:14:27;;;;;;;7.77;6.60;;;24.50;40.40;;;-142.21;32.70;112049.66;5013126;28;20573;-80
2022/12/15 10:17:08;;;;;;;7.40;6.57;;;24.50;40.40;;;-142.21;32.81;112049.66;5013072;28;20632;-79
2022/12/15 10:19:42;;;;;;;7.50;6.80;;;24.50;40.30;;;-142.21;32.93;112049.66;5013407;28;20223;-80
2022/12/15 10:22:16;;;;;;;6.77;6.00;;;24.40;40.30;;;-142.21;32.85;112049.66;5013069;28;20700;-79
2022/12/15 10:24:43;;;;;;;7.27;6.53;;;24.50;40.30;;;-142.21;32.96;112049.66;5013445;28;20224;-79
2022/12/15 10:27:34;;;;;;;7.27;6.57;;;24.50;40.30;;;-142.21;33.04;112049.66;5012995;28;20214;-80
2022/12/15 10:30:05;;;;;;;7.93;7.13;;;24.50;40.40;;;-142.21;33.04;112049.66;5011829;28;20209;-80
2022/12/15 10:32:47;;;;;;;6.83;6.17;;;24.50;40.30;;;-142.21;32.84;112049.66;5013357;28;20235;-80
2022/12/15 10:35:20;;;;;;;7.00;6.30;;;24.50;40.30;;;-142.21;32.67;112049.66;5012464;28;20243;-80
2022/12/15 10:37:48;;;;;;;7.43;6.67;;;24.40;40.30;;;-142.21;33.01;112049.66;5013134;28;20276;-78
2022/12/15 10:40:19;;;;;;;7.27;6.33;;;24.40;40.20;;;-142.21;32.88;112049.66;5012430;28;20314;-80
2022/12/15 10:42:50;;;;;;;6.90;6.20;;;24.50;40.40;;;-142.21;32.77;112049.66;5013299;28;20704;-78
2022/12/15 10:45:37;;;;;;;7.47;6.67;;;24.50;40.30;;;-142.21;32.73;112049.66;5013191;28;20289;-80
2022/12/15 10:48:07;;;;;;;6.90;6.23;;;24.40;40.30;;;-142.21;33.08;112049.66;5012441;28;20249;-79
2022/12/15 10:50:35;;;;;;;6.60;5.93;;;24.50;40.30;;;-142.21;32.63;112049.66;5013134;28;20658;-80
2022/12/15 10:53:09;;;;;;;6.87;6.17;;;24.40;40.20;;;-142.21;32.79;112049.66;5012453;28;20203;-80
2022/12/15 10:55:40;;;;;;;6.70;6.00;;;24.50;40.30;;;-142.21;32.96;112049.66;5013398;28;20245;-79
2022/12/15 10:58:19;;;;;;;6.90;6.20;;;24.50;40.30;;;-142.21;32.70;112049.66;5012506;28;20694;-80
2022/12/15 11:00:48;;;;;;;7.10;6.40;;;24.50;40.20;;;-142.21;32.72;112049.66;5013031;28;20222;-80
2022/12/15 11:03:25;;;;;;;7.03;6.33;;;24.50;40.30;;;-142.21;33.01;112049.66;5012467;28;20211;-79
2022/12/15 11:05:56;;;;;;;7.27;6.37;;;24.50;40.20;;;-142.21;32.96;112049.66;5012226;28;20203;-81
2022/12/15 11:08:25;;;;;;;6.23;5.63;;;24.50;40.30;;;-142.21;32.76;112049.66;5013140;28;20238;-81
2022/12/15 11:14:02;;;;;;;6.97;6.10;;;24.50;40.30;;;-142.21;33.04;112049.66;5012418;28;20655;-81
2022/12/15 11:16:42;;;;;;;6.90;6.20;;;24.40;40.30;;;-142.21;33.12;112049.66;5012376;28;20389;-79
2022/12/15 11:19:22;;;;;;;6.60;5.90;;;24.40;40.10;;;-142.21;32.89;112049.66;5012120;28;20289;-81
2022/12/15 11:21:58;;;;;;;6.80;5.90;;;24.50;40.30;;;-142.21;32.90;112049.66;5012784;28;20217;-78
2022/12/15 11:24:36;;;;;;;6.80;6.10;;;24.40;40.20;;;-142.21;32.77;112049.66;5012411;28;20609;-79
2022/12/15 11:27:15;;;;;;;6.80;6.00;;;24.50;40.30;;;-142.21;32.87;112049.66;5012140;28;20222;-81
2022/12/15 11:29:59;;;;;;;6.93;6.23;;;24.40;40.30;;;-142.21;32.69;112049.66;5012114;28;20213;-82
2022/12/15 11:32:33;;;;;;;6.83;5.50;;;24.40;40.20;;;-142.21;33.10;112049.66;5012156;28;20238;-80
2022/12/15 11:35:01;;;;;;;6.53;5.90;;;24.40;40.20;;;-142.21;32.83;112049.66;5011912;28;20207;-79
2022/12/15 11:37:41;;;;;;;6.17;5.43;;;24.40;40.20;;;-142.21;33.06;112049.66;5012080;28;20210;-79
2022/12/15 11:40:35;;;;;;;6.07;5.53;;;24.40;40.20;;;-142.21;33.19;112049.66;5011787;28;20218;-80
2022/12/15 11:43:33;;;;;;;5.73;5.23;;;24.40;40.30;;;-142.21;32.84;112049.66;5011514;28;20203;-80
2022/12/15 11:46:20;;;;;;;6.30;5.70;;;24.40;40.30;;;-142.21;32.81;112049.66;5011055;28;20234;-79
2022/12/15 11:49:18;;;;;;;6.43;5.83;;;24.40;40.30;;;-142.21;32.95;112049.66;5004680;28;20593;-82
2022/12/15 11:51:52;;;;;;;6.07;5.40;;;24.40;40.90;;;-142.21;32.91;112049.66;5007748;28;20258;-80
2022/12/15 11:54:29;;;;;;;6.27;5.67;;;24.40;40.40;;;-142.21;32.77;112049.66;4991969;28;20191;-80
2022/12/15 11:57:11;;;;;;;6.00;5.40;;;24.40;40.40;;;-142.21;33.06;112049.66;5010977;28;20268;-79
2022/12/15 12:00:04;;;;;;;5.73;5.20;;;24.30;40.30;;;-142.21;32.81;112049.66;5011154;28;20256;-82
2022/12/15 12:02:55;;;;;;;6.17;5.57;;;24.30;40.30;;;-142.21;32.97;112049.66;5011417;28;20206;-81
2022/12/15 12:06:00;;;;;;;5.73;5.23;;;24.30;40.30;;;-142.21;32.86;112049.66;5012192;28;20257;-79
2022/12/15 12:09:05;;;;;;;5.63;4.97;;;24.30;40.30;;;-142.21;33.12;112049.66;5010384;28;20261;-80
2022/12/15 12:11:42;;;;;;;6.20;5.60;;;24.30;40.30;;;-142.21;33.00;112049.66;5012355;28;20629;-79
2022/12/15 12:14:34;;;;;;;6.10;5.50;;;24.30;40.30;;;-142.21;32.99;112049.66;5011388;28;20195;-80
2022/12/15 12:17:11;;;;;;;6.07;5.47;;;24.30;40.30;;;-142.21;32.81;112049.66;5010957;28;20194;-80
2022/12/15 12:19:48;;;;;;;5.63;5.13;;;24.30;40.30;;;-142.21;32.99;112049.66;4992645;28;20635;-79
2022/12/15 12:22:25;;;;;;;6.03;5.20;;;24.30;40.20;;;-142.21;32.89;112049.66;4991402;28;20214;-79
2022/12/15 12:25:00;;;;;;;6.43;5.80;;;24.30;40.30;;;-142.21;32.99;112049.66;4992072;28;20239;-80
2022/12/15 12:27:39;;;;;;;6.37;5.77;;;24.30;40.30;;;-142.21;32.90;112049.66;4992311;28;20549;-80
2022/12/15 12:30:15;;;;;;;5.63;5.10;;;24.30;40.20;;;-142.21;32.55;112049.66;5010323;28;20231;-80
2022/12/15 12:32:52;;;;;;;5.70;5.10;;;24.30;40.20;;;-142.21;32.62;112049.66;5002322;28;20239;-78
2022/12/15 12:35:32;;;;;;;5.80;5.23;;;24.30;40.20;;;-142.21;32.90;112049.66;4974608;28;20207;-80
2022/12/15 12:38:01;;;;;;;5.67;5.00;;;24.40;40.20;;;-142.21;32.55;112049.66;4991545;28;20266;-80
2022/12/15 12:40:48;;;;;;;5.57;5.00;;;24.40;40.20;;;-142.21;32.63;112049.66;4991657;28;20251;-79
2022/12/15 12:43:32;;;;;;;5.33;4.80;;;24.30;40.10;;;-142.21;32.34;112049.66;4991670;28;20254;-79
2022/12/15 12:46:08;;;;;;;5.77;5.17;;;24.40;40.10;;;-142.21;32.34;112049.66;4991237;28;20241;-80
2022/12/15 12:48:50;;;;;;;6.03;5.00;;;24.40;40.10;;;-142.21;32.38;112049.66;4991879;28;20330;-80
2022/12/15 12:51:28;;;;;;;5.50;5.00;;;24.40;40.00;;;-142.21;32.25;112049.66;4991355;28;20297;-79
2022/12/15 12:53:57;;;;;;;5.20;4.70;;;24.40;40.00;;;-142.21;32.30;112049.66;4991720;28;20223;-79
2022/12/15 12:56:36;;;;;;;5.03;4.60;;;24.40;39.90;;;-142.21;32.69;112049.66;4991800;28;20570;-80
2022/12/15 12:59:26;;;;;;;5.30;4.70;;;24.40;39.90;;;-142.21;32.50;112049.66;4991100;28;20700;-80
2022/12/15 13:01:55;;;;;;;5.83;4.87;;;24.40;39.90;;;-142.21;32.57;112049.66;4991064;28;20219;-80
2022/12/15 13:04:43;;;;;;;5.43;4.93;;;24.40;39.80;;;-142.21;32.05;112049.66;4991096;28;20270;-80
2022/12/15 13:07:31;;;;;;;5.50;4.63;;;24.40;39.80;;;-142.21;32.36;112049.66;4991729;28;20215;-80
2022/12/15 13:10:18;;;;;;;5.00;4.50;;;24.40;39.80;;;-142.21;32.51;112049.66;4991651;28;20231;-80
2022/12/15 13:12:51;;;;;;;5.60;5.00;;;24.40;39.70;;;-142.21;32.18;112049.66;4977594;28;20293;-79
2022/12/15 13:15:44;;;;;;;5.53;5.03;;;24.40;39.80;;;-142.21;32.16;112049.66;4994294;28;20196;-81
2022/12/15 13:18:17;;;;;;;5.20;4.70;;;24.40;39.80;;;-142.21;32.07;112049.66;4994634;28;20594;-80
2022/12/15 13:20:47;;;;;;;5.87;4.80;;;24.40;39.80;;;-142.21;32.34;112049.66;4995310;28;20278;-81
2022/12/15 13:23:41;;;;;;;5.37;4.87;;;24.40;39.80;;;-142.21;32.25;112049.66;4994645;28;20269;-78
2022/12/15 13:26:19;;;;;;;6.00;5.40;;;24.40;39.70;;;-142.21;32.40;112049.66;4994475;28;20193;-81
2022/12/15 13:28:53;;;;;;;5.20;4.70;;;24.40;39.60;;;-142.21;32.27;112049.66;4994732;28;20203;-79
2022/12/15 13:31:47;;;;;;;5.77;5.27;;;24.40;39.60;;;-142.21;32.46;112049.66;4994229;28;20290;-79
2022/12/15 13:34:24;;;;;;;5.20;4.70;;;24.40;39.60;;;-142.21;32.41;112049.66;4993084;28;20246;-79
2022/12/15 13:37:00;;;;;;;5.20;4.50;;;24.40;39.60;;;-142.21;32.47;112049.66;4995114;28;20690;-81
2022/12/15 13:39:57;;;;;;;6.27;5.00;;;24.40;39.70;;;-142.21;32.82;112049.66;4994836;28;20227;-81
2022/12/15 13:42:36;;;;;;;5.30;4.80;;;24.40;39.60;;;-142.21;32.43;112049.66;4994096;28;20339;-81
2022/12/15 13:46:00;;;;;;;4.80;4.40;;;24.40;39.60;;;-142.21;32.60;112049.66;4993972;28;20234;-80
2022/12/15 13:48:35;;;;;;;5.10;4.60;;;24.50;39.70;;;-142.21;32.50;112049.66;4971678;28;20218;-80
2022/12/15 13:51:31;;;;;;;5.30;4.80;;;24.40;39.60;;;-142.21;32.33;112049.66;4993719;28;20218;-83
2022/12/15 13:54:04;;;;;;;5.10;4.60;;;24.40;39.60;;;-142.21;32.63;112049.66;4994455;28;20215;-81
2022/12/15 13:56:50;;;;;;;5.20;4.70;;;24.50;39.80;;;-142.21;32.52;112049.66;4994802;28;20210;-80
2022/12/15 13:59:31;;;;;;;5.87;5.10;;;24.40;39.60;;;-142.21;32.43;112049.66;4994197;28;20200;-79
2022/12/15 14:01:58;;;;;;;5.37;4.87;;;24.40;39.60;;;-142.21;32.45;112049.66;4994239;28;20230;-81
2022/12/15 14:04:26;;;;;;;5.17;4.57;;;24.50;39.60;;;-142.21;32.60;112049.66;4993978;28;20207;-81
2022/12/15 14:06:57;;;;;;;5.13;4.63;;;24.50;39.70;;;-142.21;32.34;112049.66;4994429;28;20231;-81
2022/12/15 14:09:30;;;;;;;4.87;4.37;;;24.40;39.60;;;-142.21;32.67;112049.66;4993686;28;20685;-83
2022/12/15 14:12:02;;;;;;;5.50;5.00;;;24.40;39.70;;;-142.21;32.54;112049.66;4994527;28;20203;-80
2022/12/15 14:14:34;;;;;;;4.53;4.10;;;24.40;39.80;;;-142.21;32.38;112049.66;4993880;28;20612;-79
2022/12/15 14:17:07;;;;;;;4.73;4.33;;;24.40;39.70;;;-142.21;32.52;112049.66;4994096;28;20539;-81
2022/12/15 14:19:41;;;;;;;5.47;4.97;;;24.40;39.90;;;-142.21;32.51;112049.66;4990515;28;20212;-83
2022/12/15 14:22:25;;;;;;;4.87;4.47;;;24.40;39.70;;;-142.21;32.65;112049.66;4976270;28;20238;-79
2022/12/15 14:24:58;;;;;;;5.37;4.50;;;24.40;39.60;;;-142.21;32.34;112049.66;4994061;28;20614;-80
2022/12/15 14:27:30;;;;;;;5.40;4.90;;;24.40;39.70;;;-142.21;32.47;112049.66;4979859;28;20637;-80
2022/12/15 14:30:21;;;;;;;4.93;4.43;;;24.40;39.80;;;-142.21;32.49;112049.66;4974880;28;20192;-80
2022/12/15 14:32:56;;;;;;;4.80;4.40;;;24.40;39.80;;;-142.21;32.36;112049.66;4983620;28;20274;-78
2022/12/15 14:35:31;;;;;;;5.17;4.67;;;24.40;39.80;;;-142.21;32.64;112049.66;4993440;28;20451;-80
2022/12/15 14:38:02;;;;;;;4.90;4.37;;;24.40;39.80;;;-142.21;32.59;112049.66;4993739;28;20526;-79
2022/12/15 14:40:31;;;;;;;4.50;4.10;;;24.40;39.80;;;-142.21;32.63;112049.66;4993728;28;20250;-79
2022/12/15 14:43:00;;;;;;;5.00;4.50;;;24.40;39.80;;;-142.21;32.70;112049.66;5007447;28;20261;-79
2022/12/15 14:45:32;;;;;;;4.57;4.17;;;24.40;39.80;;;-142.21;32.67;112049.66;5012661;28;20267;-80
2022/12/15 14:48:08;;;;;;;5.13;4.63;;;24.40;39.80;;;-142.21;32.56;112049.66;5012735;28;20269;-78
2022/12/15 14:50:36;;;;;;;5.07;4.57;;;24.40;39.80;;;-142.21;32.56;112049.66;5013334;28;20662;-80
2022/12/15 14:53:14;;;;;;;5.23;4.40;;;24.40;39.80;;;-142.21;32.50;112049.66;5012891;28;20301;-79
2022/12/15 14:55:41;;;;;;;4.70;4.17;;;24.40;39.80;;;-142.21;32.55;112049.66;5012519;28;20240;-81
2022/12/15 14:58:31;;;;;;;5.13;4.63;;;24.40;39.80;;;-142.21;32.85;112049.66;5012536;28;20211;-80
2022/12/15 15:00:59;;;;;;;5.30;4.80;;;24.40;39.80;;;-142.21;32.59;112049.66;5012615;28;20313;-80
2022/12/15 15:03:37;;;;;;;5.53;5.00;;;24.40;39.70;;;-142.21;32.63;112049.66;5012962;28;20207;-80
2022/12/15 15:06:17;;;;;;;4.83;4.43;;;24.40;39.80;;;-142.21;32.61;112049.66;5012597;28;20198;-80
2022/12/15 15:08:50;;;;;;;5.37;4.93;;;24.40;39.80;;;-142.21;32.70;112049.66;5012379;28;20231;-80
2022/12/15 15:11:28;;;;;;;5.23;4.73;;;24.40;39.80;;;-142.21;32.80;112049.66;5011734;28;20230;-78
2022/12/15 15:14:03;;;;;;;5.53;4.30;;;24.40;39.80;;;-142.21;32.43;112049.66;5013122;28;20206;-79
2022/12/15 15:16:30;;;;;;;4.70;4.27;;;24.40;39.80;;;-142.21;32.51;112049.66;5012377;28;20617;-80
2022/12/15 15:19:02;;;;;;;4.53;4.13;;;24.40;39.80;;;-142.21;32.42;112049.66;5012208;28;20264;-80
2022/12/15 15:21:33;;;;;;;4.87;4.37;;;24.40;39.80;;;-142.21;32.66;112049.66;5011926;28;20215;-80
2022/12/15 15:24:04;;;;;;;5.17;4.67;;;24.40;39.80;;;-142.21;32.31;112049.66;5012193;28;20198;-80
2022/12/15 15:26:32;;;;;;;5.17;4.67;;;24.40;39.80;;;-142.21;32.36;112049.66;5012193;28;20635;-80
2022/12/15 15:29:01;;;;;;;5.07;4.57;;;24.40;39.70;;;-142.21;32.39;112049.66;5012672;28;20249;-80
2022/12/15 15:31:35;;;;;;;4.70;4.30;;;24.40;39.80;;;-142.21;32.37;112049.66;5010622;28;20285;-79
2022/12/15 15:34:02;;;;;;;4.80;4.40;;;24.40;39.80;;;-142.21;32.65;112049.66;5011943;28;20627;-80
2022/12/15 15:36:35;;;;;;;5.13;4.63;;;24.40;39.70;;;-142.21;32.45;112049.66;5011644;28;20210;-79
2022/12/15 15:39:12;;;;;;;5.10;4.60;;;24.40;39.80;;;-142.21;32.46;112049.66;5012339;28;20568;-80
2022/12/15 15:41:39;;;;;;;4.97;4.47;;;24.40;39.80;;;-142.21;32.65;112049.66;5012307;28;20288;-79
2022/12/15 15:44:14;;;;;;;4.63;4.23;;;24.40;39.70;;;-142.21;32.53;112049.66;5011326;28;20248;-78
2022/12/15 15:46:47;;;;;;;5.17;4.67;;;24.40;39.80;;;-142.21;32.60;112049.66;5018970;28;20213;-79
2022/12/15 15:49:19;;;;;;;5.10;4.60;;;24.40;39.80;;;-142.21;32.56;112049.66;5031108;28;20225;-80
2022/12/15 15:51:47;;;;;;;4.67;4.23;;;24.40;39.80;;;-142.21;32.61;112049.66;5012692;28;20187;-79
2022/12/15 15:54:20;;;;;;;4.97;4.47;;;24.40;39.70;;;-142.21;32.53;112049.66;5011685;28;20238;-79
2022/12/15 15:56:47;;;;;;;5.00;4.50;;;24.40;39.80;;;-142.21;32.52;112049.66;5014381;28;20206;-79